Time;durP1;ratioP1;P1;durP2;ratioP2;P2;SDS_P1;SDS_P2;PMS_P1;PMS_P2;Temp;Humidity;BMP_temperature;BMP_pressure;BME280_temperature;BME280_humidity;BME280_pressure;Samples;Min_cycle;Max_cycle;Signal;HPM_P1;HPM_P2
2023/05/16 00:01:54;;;;;;;5.63;2.70;;;;;;;;;;5066949;28;20954;-66
2023/05/16 00:04:21;;;;;;;2.97;2.87;;;;;;;;;;5068913;28;20433;-66
2023/05/16 00:06:47;;;;;;;3.43;3.20;;;;;;;;;;5069356;28;20441;-66
2023/05/16 00:09:13;;;;;;;4.27;3.20;;;;;;;;;;5068642;28;20433;-67
2023/05/16 00:11:39;;;;;;;4.20;4.00;;;;;;;;;;5064668;28;20453;-67
2023/05/16 00:14:06;;;;;;;4.47;4.20;;;;;;;;;;5070771;28;20496;-67
2023/05/16 00:16:32;;;;;;;3.50;3.40;;;;;;;;;;5069009;28;20512;-66
2023/05/16 00:18:59;;;;;;;3.47;3.37;;;;;;;;;;5067877;28;20855;-66
2023/05/16 00:21:25;;;;;;;2.97;2.87;;;;;;;;;;5068177;28;20481;-67
2023/05/16 00:23:51;;;;;;;3.37;3.27;;;;;;;;;;5068658;28;20558;-66
2023/05/16 00:26:18;;;;;;;2.97;2.80;;;;;;;;;;5069504;28;20429;-67
2023/05/16 00:28:44;;;;;;;3.17;3.07;;;;;;;;;;5070759;28;20425;-66
2023/05/16 00:31:10;;;;;;;2.73;2.73;;;;;;;;;;5066363;28;20445;-67
2023/05/16 00:33:36;;;;;;;3.13;3.03;;;;;;;;;;5067111;28;20810;-67
2023/05/16 00:36:02;;;;;;;3.60;3.30;;;;;;;;;;5068230;28;20518;-67
2023/05/16 00:38:28;;;;;;;6.73;3.13;;;;;;;;;;5066661;28;20447;-66
2023/05/16 00:40:54;;;;;;;2.73;2.57;;;;;;;;;;5068047;28;20550;-66
2023/05/16 00:43:20;;;;;;;3.10;3.00;;;;;;;;;;5068316;28;20475;-66
2023/05/16 00:45:46;;;;;;;2.77;2.73;;;;;;;;;;5065551;28;20485;-66
2023/05/16 00:48:13;;;;;;;3.90;3.67;;;;;;;;;;5065793;28;20503;-66
2023/05/16 00:50:39;;;;;;;6.30;3.10;;;;;;;;;;5065809;28;20999;-67
2023/05/16 00:53:05;;;;;;;3.23;3.13;;;;;;;;;;5063230;28;20429;-66
2023/05/16 00:55:31;;;;;;;3.50;3.20;;;;;;;;;;5065985;28;20506;-67
2023/05/16 00:57:58;;;;;;;3.23;3.13;;;;;;;;;;5068086;28;20429;-66
2023/05/16 01:00:24;;;;;;;4.63;3.00;;;;;;;;;;5067124;28;20934;-67
2023/05/16 01:02:52;;;;;;;3.70;3.40;;;;;;;;;;5066373;28;20453;-67
2023/05/16 01:05:18;;;;;;;6.23;3.10;;;;;;;;;;5065560;28;20429;-67
2023/05/16 01:07:44;;;;;;;3.23;3.23;;;;;;;;;;5067156;28;20441;-67
2023/05/16 01:10:11;;;;;;;3.27;3.03;;;;;;;;;;5069541;28;20513;-67
2023/05/16 01:12:42;;;;;;;2.77;2.77;;;;;;;;;;5065865;28;20445;-66
2023/05/16 01:15:11;;;;;;;2.20;2.20;;;;;;;;;;5066459;28;20444;-66
2023/05/16 01:17:38;;;;;;;6.07;2.93;;;;;;;;;;5067705;28;20991;-68
2023/05/16 01:20:30;;;;;;;2.80;2.70;;;;;;;;;;5067863;28;20818;-66
2023/05/16 01:23:04;;;;;;;4.00;2.60;;;;;;;;;;5064862;28;20506;-67
2023/05/16 01:26:09;;;;;;;2.90;2.80;;;;;;;;;;5068108;28;20443;-67
2023/05/16 01:28:36;;;;;;;3.00;2.80;;;;;;;;;;5043498;28;20450;-66
2023/05/16 01:31:02;;;;;;;4.40;2.60;;;;;;;;;;5045217;28;20442;-66
2023/05/16 01:33:28;;;;;;;3.30;3.03;;;;;;;;;;5028252;28;20443;-67
2023/05/16 01:36:06;;;;;;;3.33;3.13;;;;;;;;;;5045137;28;20573;-66
2023/05/16 01:38:44;;;;;;;2.37;2.30;;;;;;;;;;5044920;28;20482;-67
2023/05/16 01:41:22;;;;;;;5.13;3.37;;;;;;;;;;5066724;28;20709;-67
2023/05/16 01:43:51;;;;;;;3.07;2.97;;;;;;;;;;5067536;28;20528;-66
2023/05/16 01:46:31;;;;;;;2.93;2.73;;;;;;;;;;5064782;28;20482;-66
2023/05/16 01:49:01;;;;;;;2.90;2.90;;;;;;;;;;5067598;28;20433;-66
2023/05/16 01:51:29;;;;;;;4.50;2.63;;;;;;;;;;5067270;28;20963;-66
2023/05/16 01:53:58;;;;;;;3.00;3.00;;;;;;;;;;5064618;28;20444;-66
2023/05/16 01:56:25;;;;;;;3.07;2.97;;;;;;;;;;5067905;28;20464;-66
2023/05/16 01:58:52;;;;;;;3.40;3.17;;;;;;;;;;5066684;28;20444;-67
2023/05/16 02:01:18;;;;;;;4.17;2.73;;;;;;;;;;5066535;28;20571;-66
2023/05/16 02:03:44;;;;;;;4.67;2.90;;;;;;;;;;5063553;28;20517;-67
2023/05/16 02:06:10;;;;;;;2.97;2.87;;;;;;;;;;5069869;28;21037;-67
2023/05/16 02:08:36;;;;;;;3.03;2.77;;;;;;;;;;5071032;28;20444;-67
2023/05/16 02:11:02;;;;;;;3.70;3.60;;;;;;;;;;5071374;28;20778;-66
2023/05/16 02:13:28;;;;;;;3.90;3.70;;;;;;;;;;5069476;28;20459;-67
2023/05/16 02:15:54;;;;;;;5.17;4.80;;;;;;;;;;5070961;28;20453;-67
2023/05/16 02:18:22;;;;;;;4.80;4.50;;;;;;;;;;5070208;28;20444;-68
2023/05/16 02:20:48;;;;;;;5.87;5.37;;;;;;;;;;5070291;28;20871;-67
2023/05/16 02:23:14;;;;;;;5.27;5.07;;;;;;;;;;5066944;28;20452;-67
2023/05/16 02:25:41;;;;;;;5.33;5.13;;;;;;;;;;5072831;28;20800;-67
2023/05/16 02:28:07;;;;;;;5.77;5.57;;;;;;;;;;5070533;28;20724;-67
2023/05/16 02:30:33;;;;;;;5.17;4.97;;;;;;;;;;5070612;28;20433;-69
2023/05/16 02:32:59;;;;;;;5.73;5.10;;;;;;;;;;5070585;28;20452;-67
2023/05/16 02:35:25;;;;;;;6.00;5.63;;;;;;;;;;5070807;28;20444;-68
2023/05/16 02:37:51;;;;;;;5.67;5.37;;;;;;;;;;5068700;28;20809;-67
2023/05/16 02:40:17;;;;;;;5.77;5.43;;;;;;;;;;5069946;28;20433;-68
2023/05/16 02:42:43;;;;;;;7.23;6.60;;;;;;;;;;5068111;28;20488;-67
2023/05/16 02:45:09;;;;;;;13.33;5.30;;;;;;;;;;5070134;28;21645;-68
2023/05/16 02:47:37;;;;;;;8.30;6.37;;;;;;;;;;5072417;28;20481;-67
2023/05/16 02:50:03;;;;;;;6.50;6.13;;;;;;;;;;5070550;28;20449;-67
2023/05/16 02:52:29;;;;;;;6.77;6.37;;;;;;;;;;5069940;28;20443;-67
2023/05/16 02:54:55;;;;;;;6.10;5.70;;;;;;;;;;5072249;28;20504;-67
2023/05/16 02:57:21;;;;;;;7.17;6.77;;;;;;;;;;5069644;28;20863;-67
2023/05/16 02:59:47;;;;;;;7.53;5.83;;;;;;;;;;5070699;28;20481;-67
2023/05/16 03:02:13;;;;;;;6.97;6.53;;;;;;;;;;5069721;28;20503;-70
2023/05/16 03:04:39;;;;;;;9.90;7.20;;;;;;;;;;5067543;28;20440;-67
2023/05/16 03:07:05;;;;;;;8.07;7.43;;;;;;;;;;5070887;28;20442;-67
2023/05/16 03:09:31;;;;;;;7.20;6.60;;;;;;;;;;5070216;28;20429;-66
2023/05/16 03:11:58;;;;;;;7.13;6.70;;;;;;;;;;5068411;28;20953;-67
2023/05/16 03:14:24;;;;;;;7.80;7.30;;;;;;;;;;5068202;28;22258;-69
2023/05/16 03:16:50;;;;;;;7.90;7.37;;;;;;;;;;5069942;28;20464;-67
2023/05/16 03:19:16;;;;;;;9.10;7.97;;;;;;;;;;5067998;28;20428;-67
2023/05/16 03:21:42;;;;;;;8.90;8.13;;;;;;;;;;5068158;28;20492;-68
2023/05/16 03:24:08;;;;;;;9.33;8.63;;;;;;;;;;5070251;28;20446;-67
2023/05/16 03:26:34;;;;;;;10.00;8.57;;;;;;;;;;5069926;28;20561;-67
2023/05/16 03:29:00;;;;;;;8.97;8.17;;;;;;;;;;5068400;28;21008;-68
2023/05/16 03:31:26;;;;;;;8.57;7.73;;;;;;;;;;5067189;28;20441;-69
2023/05/16 03:33:52;;;;;;;11.37;8.80;;;;;;;;;;5068967;28;20437;-68
2023/05/16 03:36:20;;;;;;;9.87;9.00;;;;;;;;;;5069571;28;20437;-67
2023/05/16 03:38:46;;;;;;;10.30;8.20;;;;;;;;;;5067211;28;20441;-68
2023/05/16 03:41:12;;;;;;;9.13;8.33;;;;;;;;;;5070299;28;20476;-68
2023/05/16 03:43:38;;;;;;;12.23;9.13;;;;;;;;;;5071262;28;20490;-67
2023/05/16 03:46:04;;;;;;;10.03;8.87;;;;;;;;;;5068650;28;20817;-70
2023/05/16 03:48:30;;;;;;;12.80;8.77;;;;;;;;;;5066649;28;20445;-67
2023/05/16 03:50:56;;;;;;;9.70;8.80;;;;;;;;;;5068652;28;20456;-70
2023/05/16 03:53:22;;;;;;;7.60;7.10;;;;;;;;;;5066893;28;20563;-66
2023/05/16 03:55:48;;;;;;;10.33;9.47;;;;;;;;;;5068824;28;20883;-68
2023/05/16 03:58:15;;;;;;;12.03;10.77;;;;;;;;;;5069386;28;20773;-67
2023/05/16 04:00:41;;;;;;;14.70;9.43;;;;;;;;;;5066999;28;20469;-67
2023/05/16 04:03:07;;;;;;;11.10;10.10;;;;;;;;;;5065820;28;20483;-68
2023/05/16 04:05:33;;;;;;;13.57;10.87;;;;;;;;;;5065920;28;20934;-69
2023/05/16 04:07:59;;;;;;;13.27;9.87;;;;;;;;;;5067530;28;20452;-67
2023/05/16 04:10:27;;;;;;;14.80;10.50;;;;;;;;;;5066791;28;20524;-67
2023/05/16 04:12:53;;;;;;;11.90;10.63;;;;;;;;;;5066348;28;20541;-66
2023/05/16 04:15:19;;;;;;;13.00;10.30;;;;;;;;;;5066901;28;20520;-67
2023/05/16 04:17:45;;;;;;;11.80;10.70;;;;;;;;;;5067456;28;20536;-67
2023/05/16 04:20:12;;;;;;;13.57;10.10;;;;;;;;;;5069060;28;20531;-68
2023/05/16 04:22:38;;;;;;;11.07;10.03;;;;;;;;;;5059003;28;20489;-67
2023/05/16 04:25:04;;;;;;;12.27;10.60;;;;;;;;;;5066938;28;20778;-69
2023/05/16 04:27:30;;;;;;;17.77;11.83;;;;;;;;;;5065729;28;20448;-68
2023/05/16 04:29:56;;;;;;;12.77;10.20;;;;;;;;;;5066868;28;20445;-67
2023/05/16 04:32:22;;;;;;;10.77;9.73;;;;;;;;;;5067188;28;20469;-67
2023/05/16 04:34:52;;;;;;;14.73;11.50;;;;;;;;;;5067095;28;20438;-66
2023/05/16 04:37:19;;;;;;;12.43;11.10;;;;;;;;;;5066718;28;20449;-67
2023/05/16 04:39:46;;;;;;;19.50;11.40;;;;;;;;;;5065377;28;20470;-67
2023/05/16 06:57:30;;;;;;;16.03;11.33;;;;;;;;;;4949833;28;20922;-68
2023/05/16 06:59:56;;;;;;;9.00;7.77;;;;;;;;;;4973500;28;20528;-68
2023/05/16 07:02:22;;;;;;;15.93;10.90;;;;;;;;;;4967484;28;20576;-68
2023/05/16 07:04:48;;;;;;;13.83;10.97;;;;;;;;;;4972561;28;20469;-69
2023/05/16 07:07:14;;;;;;;12.73;10.90;;;;;;;;;;4972713;28;20446;-69
2023/05/16 07:09:40;;;;;;;11.93;10.70;;;;;;;;;;4973350;28;20431;-68
2023/05/16 07:12:06;;;;;;;15.50;10.70;;;;;;;;;;4972882;28;20486;-68
2023/05/16 07:14:32;;;;;;;14.50;11.90;;;;;;;;;;4973299;28;20434;-68
2023/05/16 07:16:58;;;;;;;17.63;11.70;;;;;;;;;;4963260;28;20427;-68
2023/05/16 07:19:24;;;;;;;17.73;10.60;;;;;;;;;;4957406;28;20689;-68
2023/05/16 07:21:50;;;;;;;19.03;10.83;;;;;;;;;;4972041;28;20656;-68
2023/05/16 07:24:16;;;;;;;14.80;10.90;;;;;;;;;;4973331;28;20433;-68
2023/05/16 07:26:42;;;;;;;15.80;10.53;;;;;;;;;;4971110;28;20504;-68
2023/05/16 07:29:08;;;;;;;12.83;10.60;;;;;;;;;;4971040;28;20430;-68
2023/05/16 07:31:34;;;;;;;13.00;10.80;;;;;;;;;;4972728;28;20425;-70
2023/05/16 07:34:00;;;;;;;10.73;9.13;;;;;;;;;;4972859;28;20533;-68
2023/05/16 07:36:26;;;;;;;13.87;10.90;;;;;;;;;;4972353;28;20550;-68
2023/05/16 07:38:52;;;;;;;12.80;10.27;;;;;;;;;;4972945;28;20819;-68
2023/05/16 07:41:18;;;;;;;10.30;9.17;;;;;;;;;;4972387;28;20681;-68
2023/05/16 07:43:44;;;;;;;17.30;10.60;;;;;;;;;;4968340;28;20430;-68
2023/05/16 07:46:10;;;;;;;12.23;10.50;;;;;;;;;;4971116;28;20465;-68
2023/05/16 07:48:36;;;;;;;11.30;10.17;;;;;;;;;;4971604;28;20422;-68
2023/05/16 07:51:02;;;;;;;13.70;11.60;;;;;;;;;;4972356;28;20956;-68
2023/05/16 07:53:28;;;;;;;9.90;9.00;;;;;;;;;;4972150;28;20428;-69
2023/05/16 07:55:55;;;;;;;9.47;8.47;;;;;;;;;;4970014;28;20441;-68
2023/05/16 07:58:21;;;;;;;12.83;9.57;;;;;;;;;;4971688;28;20474;-68
2023/05/16 08:00:47;;;;;;;10.93;9.20;;;;;;;;;;4970616;28;20514;-68
2023/05/16 08:03:13;;;;;;;10.67;9.67;;;;;;;;;;4970220;28;20533;-68
2023/05/16 08:05:39;;;;;;;13.80;10.33;;;;;;;;;;4971273;28;20485;-69
2023/05/16 08:08:05;;;;;;;10.27;9.37;;;;;;;;;;4968386;28;20461;-68
2023/05/16 08:10:31;;;;;;;9.43;8.53;;;;;;;;;;4967591;28;20442;-69
2023/05/16 08:12:57;;;;;;;9.13;8.43;;;;;;;;;;4959375;28;20497;-68
2023/05/16 08:15:25;;;;;;;9.60;8.23;;;;;;;;;;4971973;28;20429;-68
2023/05/16 08:17:51;;;;;;;9.30;8.30;;;;;;;;;;4972459;28;20851;-68
2023/05/16 08:20:16;;;;;;;14.67;9.50;;;;;;;;;;4972119;28;20509;-69
2023/05/16 08:22:42;;;;;;;14.27;10.30;;;;;;;;;;4972301;28;20486;-68
2023/05/16 08:25:09;;;;;;;12.23;9.70;;;;;;;;;;4972335;28;20422;-69
2023/05/16 08:27:34;;;;;;;10.57;9.67;;;;;;;;;;4971537;28;20422;-69
2023/05/16 08:30:01;;;;;;;12.80;9.43;;;;;;;;;;4971913;28;20449;-68
2023/05/16 08:32:27;;;;;;;11.00;8.80;;;;;;;;;;4970572;28;21026;-69
2023/05/16 08:34:53;;;;;;;9.97;8.70;;;;;;;;;;4972302;28;20429;-68
2023/05/16 08:37:19;;;;;;;10.00;8.80;;;;;;;;;;4971750;28;20776;-69
2023/05/16 08:39:45;;;;;;;9.90;8.90;;;;;;;;;;4971929;28;20434;-68
2023/05/16 08:42:11;;;;;;;11.67;8.50;;;;;;;;;;4971265;28;20564;-68
2023/05/16 08:44:37;;;;;;;13.93;9.00;;;;;;;;;;4972096;28;20778;-68
2023/05/16 08:47:09;;;;;;;9.27;7.10;;;;;;;;;;4971712;28;20939;-68
2023/05/16 08:49:35;;;;;;;9.23;8.37;;;;;;;;;;4971879;28;20936;-68
2023/05/16 08:52:02;;;;;;;9.50;8.60;;;;;;;;;;4971366;28;20999;-69
2023/05/16 08:54:28;;;;;;;10.07;8.30;;;;;;;;;;4962022;28;20434;-68
2023/05/16 08:56:55;;;;;;;14.83;8.77;;;;;;;;;;4956020;28;20458;-69
2023/05/16 08:59:21;;;;;;;10.73;9.73;;;;;;;;;;4971190;28;20470;-68
2023/05/16 09:01:47;;;;;;;16.40;9.03;;;;;;;;;;4971312;28;20485;-68
2023/05/16 09:04:13;;;;;;;10.40;8.27;;;;;;;;;;4971256;28;20477;-68
2023/05/16 09:06:40;;;;;;;12.40;7.97;;;;;;;;;;4970692;28;20541;-75
2023/05/16 09:09:08;;;;;;;11.60;8.77;;;;;;;;;;4970973;28;20486;-69
2023/05/16 09:11:34;;;;;;;12.20;8.83;;;;;;;;;;4970974;28;20848;-68
2023/05/16 09:14:00;;;;;;;11.83;10.10;;;;;;;;;;4968957;28;20449;-69
2023/05/16 09:16:26;;;;;;;10.40;8.67;;;;;;;;;;4969255;28;20434;-69
2023/05/16 09:18:55;;;;;;;9.87;8.73;;;;;;;;;;4958454;28;20445;-69
2023/05/16 09:21:21;;;;;;;10.83;8.87;;;;;;;;;;4971038;28;20473;-68
2023/05/16 09:23:50;;;;;;;10.93;8.70;;;;;;;;;;4971375;28;20461;-69
2023/05/16 09:26:18;;;;;;;11.40;9.20;;;;;;;;;;4970607;28;20778;-68
2023/05/16 09:28:44;;;;;;;8.40;7.53;;;;;;;;;;4967961;28;20459;-68
2023/05/16 09:31:22;;;;;;;8.97;8.17;;;;;;;;;;4968023;28;21092;-68
2023/05/16 09:33:49;;;;;;;11.10;8.63;;;;;;;;;;4965812;28;20449;-68
2023/05/16 09:36:15;;;;;;;13.17;8.43;;;;;;;;;;4959412;28;20450;-69
2023/05/16 09:38:41;;;;;;;9.50;8.60;;;;;;;;;;4970234;28;20434;-68
2023/05/16 09:41:09;;;;;;;8.73;7.93;;;;;;;;;;4969589;28;20482;-69
2023/05/16 09:43:37;;;;;;;8.90;8.00;;;;;;;;;;4970515;28;20866;-69
2023/05/16 09:46:03;;;;;;;10.07;7.30;;;;;;;;;;4969810;28;20469;-69
2023/05/16 09:48:29;;;;;;;13.27;8.60;;;;;;;;;;4970572;28;20824;-69
2023/05/16 09:50:58;;;;;;;7.93;7.17;;;;;;;;;;4969957;28;20501;-69
2023/05/16 09:53:26;;;;;;;9.17;8.30;;;;;;;;;;4967022;28;20759;-69
2023/05/16 09:56:11;;;;;;;8.70;7.80;;;;;;;;;;4965261;28;20467;-69
2023/05/16 09:58:39;;;;;;;8.20;7.43;;;;;;;;;;4969174;28;20469;-69
2023/05/16 10:01:06;;;;;;;10.47;8.47;;;;;;;;;;4969879;28;20484;-68
2023/05/16 10:03:34;;;;;;;6.07;5.47;;;;;;;;;;4968539;28;20493;-68
2023/05/16 10:06:01;;;;;;;7.60;6.90;;;;;;;;;;4968061;28;20442;-68
2023/05/16 10:08:27;;;;;;;10.47;7.43;;;;;;;;;;4956814;28;20442;-69
2023/05/16 10:10:56;;;;;;;7.27;6.67;;;;;;;;;;4969505;28;20430;-69
2023/05/16 10:13:28;;;;;;;7.07;6.37;;;;;;;;;;4969175;28;20449;-68
2023/05/16 10:15:58;;;;;;;6.53;6.03;;;;;;;;;;4960581;28;20430;-69
2023/05/16 10:18:31;;;;;;;8.47;6.20;;;;;;;;;;4970477;28;20481;-68
2023/05/16 10:20:57;;;;;;;5.60;5.23;;;;;;;;;;4969165;28;20473;-68
2023/05/16 10:23:25;;;;;;;6.07;5.57;;;;;;;;;;4969918;28;20513;-71
2023/05/16 10:25:51;;;;;;;8.70;5.70;;;;;;;;;;4969984;28;20837;-69
2023/05/16 10:28:17;;;;;;;5.03;4.63;;;;;;;;;;4974054;28;20434;-69
2023/05/16 10:30:47;;;;;;;5.00;4.70;;;;;;;;;;4972583;28;20433;-69
2023/05/16 10:33:14;;;;;;;6.03;5.53;;;;;;;;;;4973238;28;20444;-67
2023/05/16 10:35:40;;;;;;;4.67;4.47;;;;;;;;;;4973390;28;20472;-68
2023/05/16 10:38:07;;;;;;;8.53;5.27;;;;;;;;;;4973573;28;20449;-67
2023/05/16 10:40:33;;;;;;;4.83;4.43;;;;;;;;;;4968464;28;20485;-68
2023/05/16 10:43:00;;;;;;;5.23;4.90;;;;;;;;;;4973170;28;20579;-68
2023/05/16 10:45:26;;;;;;;4.70;4.50;;;;;;;;;;4970590;28;20441;-67
2023/05/16 10:47:57;;;;;;;4.50;4.30;;;;;;;;;;4973561;28;21032;-67
2023/05/16 10:50:32;;;;;;;4.30;4.20;;;;;;;;;;4968777;28;20525;-68
2023/05/16 10:53:19;;;;;;;4.43;4.23;;;;;;;;;;4971992;28;20461;-67
2023/05/16 10:56:01;;;;;;;3.77;3.47;;;;;;;;;;4966882;28;20474;-67
2023/05/16 10:58:31;;;;;;;4.83;4.43;;;;;;;;;;4972650;28;20508;-67
2023/05/16 11:01:16;;;;;;;4.00;3.70;;;;;;;;;;4970237;28;20465;-66
2023/05/16 11:03:57;;;;;;;3.80;3.60;;;;;;;;;;4971881;28;20441;-67
2023/05/16 11:06:24;;;;;;;3.20;3.10;;;;;;;;;;4970752;28;20421;-67
2023/05/16 11:09:05;;;;;;;3.33;3.27;;;;;;;;;;4962980;28;20447;-67
2023/05/16 11:11:38;;;;;;;3.83;3.63;;;;;;;;;;4972465;28;20918;-67
2023/05/16 11:14:04;;;;;;;3.33;3.13;;;;;;;;;;4973023;28;20442;-67
2023/05/16 11:16:30;;;;;;;3.00;2.90;;;;;;;;;;4971404;28;20440;-67
2023/05/16 11:19:04;;;;;;;4.90;2.77;;;;;;;;;;4972797;28;20442;-67
2023/05/16 11:21:49;;;;;;;3.27;3.17;;;;;;;;;;4963435;28;20479;-67
2023/05/16 11:24:28;;;;;;;2.30;2.20;;;;;;;;;;4959690;28;20534;-67
2023/05/16 11:26:54;;;;;;;2.40;2.40;;;;;;;;;;4972537;28;20477;-68
2023/05/16 11:29:21;;;;;;;6.10;2.40;;;;;;;;;;4973068;28;20434;-68
2023/05/16 11:31:47;;;;;;;2.77;2.77;;;;;;;;;;4972759;28;20421;-66
2023/05/16 11:34:13;;;;;;;2.40;2.40;;;;;;;;;;4971681;28;20457;-67
2023/05/16 11:36:39;;;;;;;3.27;2.57;;;;;;;;;;4971602;28;20419;-67
2023/05/16 11:39:09;;;;;;;2.70;2.67;;;;;;;;;;4958581;28;20504;-67
2023/05/16 11:41:35;;;;;;;2.60;2.50;;;;;;;;;;4971947;28;20481;-67
2023/05/16 11:44:01;;;;;;;2.87;2.67;;;;;;;;;;4972903;28;20445;-67
2023/05/16 11:46:27;;;;;;;3.53;3.33;;;;;;;;;;4972668;28;20926;-67
2023/05/16 11:48:53;;;;;;;2.63;2.53;;;;;;;;;;4972944;28;20450;-67
2023/05/16 11:51:19;;;;;;;3.17;3.07;;;;;;;;;;4972508;28;20859;-68
2023/05/16 11:53:48;;;;;;;2.70;2.50;;;;;;;;;;4971428;28;20418;-67
2023/05/16 11:56:14;;;;;;;3.13;2.90;;;;;;;;;;4971453;28;20485;-67
2023/05/16 11:58:41;;;;;;;3.17;2.83;;;;;;;;;;4972635;28;20461;-67
2023/05/16 12:01:07;;;;;;;3.30;3.10;;;;;;;;;;4972383;28;20430;-67
2023/05/16 12:03:34;;;;;;;2.77;2.67;;;;;;;;;;4972445;28;20430;-67
2023/05/16 12:06:00;;;;;;;3.20;2.97;;;;;;;;;;4972341;28;20445;-67
2023/05/16 12:08:26;;;;;;;5.20;2.80;;;;;;;;;;4968178;28;20529;-67
2023/05/16 12:10:52;;;;;;;2.70;2.50;;;;;;;;;;4970129;28;20504;-68
2023/05/16 12:13:19;;;;;;;3.13;3.03;;;;;;;;;;4971651;28;20418;-68
2023/05/16 12:15:46;;;;;;;2.60;2.40;;;;;;;;;;4971245;28;20434;-68
2023/05/16 12:18:12;;;;;;;2.73;2.47;;;;;;;;;;4970470;28;20479;-68
2023/05/16 12:20:39;;;;;;;2.50;2.40;;;;;;;;;;4971691;28;20422;-67
2023/05/16 12:23:09;;;;;;;7.60;2.40;;;;;;;;;;4970433;28;20498;-68
2023/05/16 12:25:40;;;;;;;11.50;2.07;;;;;;;;;;4971257;28;20937;-67
2023/05/16 12:28:07;;;;;;;1.97;1.87;;;;;;;;;;4971571;28;20492;-67
2023/05/16 12:30:33;;;;;;;2.37;2.17;;;;;;;;;;4968153;28;20525;-67
2023/05/16 12:33:00;;;;;;;1.73;1.73;;;;;;;;;;4970921;28;20597;-67
2023/05/16 12:35:32;;;;;;;2.30;2.20;;;;;;;;;;4971395;28;20421;-67
2023/05/16 12:37:58;;;;;;;1.93;1.83;;;;;;;;;;4971723;28;20451;-67
2023/05/16 12:40:27;;;;;;;2.10;2.00;;;;;;;;;;4967297;28;20904;-67
2023/05/16 12:42:53;;;;;;;1.63;1.63;;;;;;;;;;4971369;28;20504;-67
2023/05/16 12:45:19;;;;;;;1.47;1.47;;;;;;;;;;4971270;28;20996;-68
2023/05/16 12:47:46;;;;;;;2.20;1.30;;;;;;;;;;4971325;28;20972;-68
2023/05/16 12:50:13;;;;;;;1.40;1.40;;;;;;;;;;4970735;28;20433;-68
2023/05/16 12:52:47;;;;;;;1.83;1.73;;;;;;;;;;4970964;28;20508;-68
2023/05/16 12:55:13;;;;;;;3.60;1.10;;;;;;;;;;4971480;28;20933;-67
2023/05/16 12:57:42;;;;;;;1.57;1.23;;;;;;;;;;4970662;28;20481;-67
2023/05/16 13:00:10;;;;;;;4.27;1.33;;;;;;;;;;4969678;28;20474;-67
2023/05/16 13:02:36;;;;;;;1.20;1.10;;;;;;;;;;4971155;28;20877;-68
2023/05/16 13:05:03;;;;;;;3.20;3.10;;;;;;;;;;4971216;28;20421;-67
2023/05/16 13:07:29;;;;;;;2.30;1.73;;;;;;;;;;4970506;28;20536;-67
2023/05/16 13:09:55;;;;;;;1.13;1.07;;;;;;;;;;4970101;28;20430;-68
2023/05/16 13:12:25;;;;;;;0.83;0.83;;;;;;;;;;4970589;28;20444;-68
2023/05/16 13:14:51;;;;;;;0.90;0.90;;;;;;;;;;4971276;28;20938;-67
2023/05/16 13:17:17;;;;;;;1.33;1.20;;;;;;;;;;4970448;28;20445;-67
2023/05/16 13:19:43;;;;;;;0.90;0.90;;;;;;;;;;4970778;28;20823;-68
2023/05/16 13:22:09;;;;;;;1.03;1.03;;;;;;;;;;4970645;28;20485;-68
2023/05/16 13:24:35;;;;;;;1.00;1.00;;;;;;;;;;4970756;28;20422;-68
2023/05/16 13:27:01;;;;;;;0.90;0.90;;;;;;;;;;4968441;28;20477;-67
2023/05/16 13:29:27;;;;;;;1.03;1.03;;;;;;;;;;4970963;28;20422;-68
2023/05/16 13:31:53;;;;;;;1.53;1.43;;;;;;;;;;4971006;28;20430;-67
2023/05/16 13:34:19;;;;;;;1.20;1.20;;;;;;;;;;4970927;28;20426;-68
2023/05/16 13:36:46;;;;;;;0.93;0.93;;;;;;;;;;4956082;28;20461;-68
2023/05/16 13:39:12;;;;;;;1.40;1.40;;;;;;;;;;4966751;28;20428;-68
2023/05/16 13:41:39;;;;;;;1.17;0.80;;;;;;;;;;4968564;28;20462;-67
2023/05/16 13:44:05;;;;;;;0.93;0.93;;;;;;;;;;4969635;28;20981;-68
2023/05/16 13:46:31;;;;;;;1.20;1.10;;;;;;;;;;4964796;28;20438;-67
2023/05/16 13:48:57;;;;;;;1.07;1.07;;;;;;;;;;4956555;28;20457;-68
2023/05/16 13:51:23;;;;;;;0.93;0.93;;;;;;;;;;4959960;28;20437;-67
2023/05/16 13:53:49;;;;;;;0.90;0.90;;;;;;;;;;4954108;28;20457;-67
2023/05/16 13:56:15;;;;;;;1.07;0.97;;;;;;;;;;4952163;28;20454;-67
2023/05/16 13:58:41;;;;;;;1.00;1.00;;;;;;;;;;4953331;28;20544;-71
2023/05/16 14:01:07;;;;;;;1.03;1.03;;;;;;;;;;4953047;28;20441;-67
2023/05/16 14:03:35;;;;;;;1.30;1.30;;;;;;;;;;4971281;28;20966;-68
2023/05/16 14:06:01;;;;;;;5.07;1.57;;;;;;;;;;4974083;28;20434;-68
2023/05/16 14:08:28;;;;;;;0.83;0.83;;;;;;;;;;4974666;28;20480;-68
2023/05/16 14:10:54;;;;;;;0.93;0.93;;;;;;;;;;4959095;28;20466;-68
2023/05/16 14:13:20;;;;;;;4.27;1.10;;;;;;;;;;4974607;28;20421;-68
2023/05/16 14:15:46;;;;;;;1.03;1.03;;;;;;;;;;4972446;28;20445;-68
2023/05/16 14:18:12;;;;;;;1.13;1.13;;;;;;;;;;4959915;28;20441;-67
2023/05/16 14:20:38;;;;;;;0.67;0.67;;;;;;;;;;4960685;28;20462;-68
2023/05/16 14:23:04;;;;;;;1.07;1.07;;;;;;;;;;4955739;28;20497;-68
2023/05/16 14:25:30;;;;;;;3.60;0.90;;;;;;;;;;4964383;28;20576;-68
2023/05/16 14:27:56;;;;;;;1.13;1.13;;;;;;;;;;4956708;28;20443;-68
2023/05/16 14:30:22;;;;;;;6.27;1.33;;;;;;;;;;4956642;28;20434;-68
2023/05/16 14:32:48;;;;;;;2.10;1.13;;;;;;;;;;4958926;28;20450;-68
2023/05/16 14:35:14;;;;;;;0.97;0.97;;;;;;;;;;4955879;28;20464;-68
2023/05/16 14:37:40;;;;;;;0.90;0.90;;;;;;;;;;4958962;28;20438;-68
2023/05/16 14:40:08;;;;;;;0.60;0.60;;;;;;;;;;4973845;28;20429;-68
2023/05/16 14:42:34;;;;;;;0.83;0.80;;;;;;;;;;4973681;28;20477;-68
2023/05/16 14:45:00;;;;;;;1.07;1.07;;;;;;;;;;4973805;28;20426;-67
2023/05/16 14:47:27;;;;;;;1.10;1.10;;;;;;;;;;4969608;28;20438;-67
2023/05/16 14:49:53;;;;;;;4.27;1.00;;;;;;;;;;4973893;28;20426;-68
2023/05/16 14:52:20;;;;;;;1.00;1.00;;;;;;;;;;4973727;28;20484;-67
2023/05/16 14:54:46;;;;;;;12.20;1.23;;;;;;;;;;4973477;28;20450;-68
2023/05/16 14:57:12;;;;;;;1.10;1.10;;;;;;;;;;4972043;28;20884;-68
2023/05/16 14:59:38;;;;;;;1.90;1.30;;;;;;;;;;4974095;28;20414;-67
2023/05/16 15:02:05;;;;;;;1.20;0.97;;;;;;;;;;4973397;28;20985;-68
2023/05/16 15:04:32;;;;;;;1.00;1.00;;;;;;;;;;4965928;28;20471;-67
2023/05/16 15:06:58;;;;;;;1.20;1.20;;;;;;;;;;4971889;28;20437;-67
2023/05/16 15:09:24;;;;;;;2.40;2.27;;;;;;;;;;4964813;28;20863;-67
2023/05/16 15:11:50;;;;;;;1.10;1.10;;;;;;;;;;4962248;28;20465;-68
2023/05/16 15:14:16;;;;;;;4.50;1.13;;;;;;;;;;4973700;28;20438;-67
2023/05/16 15:16:42;;;;;;;1.17;1.17;;;;;;;;;;4973063;28;20418;-67
2023/05/16 15:19:08;;;;;;;1.23;1.00;;;;;;;;;;4956316;28;20531;-68
2023/05/16 15:21:34;;;;;;;1.90;1.03;;;;;;;;;;4973117;28;20556;-67
2023/05/16 15:24:00;;;;;;;8.20;1.20;;;;;;;;;;4973478;28;20466;-68
2023/05/16 15:26:26;;;;;;;2.83;1.30;;;;;;;;;;4972548;28;20429;-67
2023/05/16 15:28:54;;;;;;;1.20;1.20;;;;;;;;;;4973432;28;20500;-68
2023/05/16 15:31:20;;;;;;;1.60;1.50;;;;;;;;;;4972956;28;20425;-67
2023/05/16 15:33:46;;;;;;;3.23;1.70;;;;;;;;;;4973124;28;20441;-68
2023/05/16 15:36:12;;;;;;;1.53;1.53;;;;;;;;;;4972855;28;20484;-67
2023/05/16 15:38:42;;;;;;;1.63;1.53;;;;;;;;;;4970198;28;20937;-68
2023/05/16 15:41:08;;;;;;;2.30;1.50;;;;;;;;;;4972461;28;20454;-67
2023/05/16 15:43:34;;;;;;;1.23;1.23;;;;;;;;;;4972881;28;20457;-67
2023/05/16 15:46:00;;;;;;;1.23;1.13;;;;;;;;;;4971715;28;20442;-67
2023/05/16 15:48:26;;;;;;;1.63;1.50;;;;;;;;;;4973154;28;20430;-68
2023/05/16 15:50:52;;;;;;;1.70;1.40;;;;;;;;;;4968027;28;20787;-68
2023/05/16 15:53:18;;;;;;;5.43;1.63;;;;;;;;;;4971334;28;20452;-68
2023/05/16 15:55:46;;;;;;;1.47;1.20;;;;;;;;;;4970885;28;20430;-67
2023/05/16 15:58:13;;;;;;;1.90;1.80;;;;;;;;;;4972503;28;20458;-68
2023/05/16 16:00:41;;;;;;;1.67;1.50;;;;;;;;;;4972118;28;20573;-68
2023/05/16 16:03:08;;;;;;;2.60;2.07;;;;;;;;;;4972404;28;20489;-67
2023/05/16 16:05:34;;;;;;;3.13;1.80;;;;;;;;;;4970287;28;20946;-67
2023/05/16 16:08:00;;;;;;;3.40;1.37;;;;;;;;;;4972554;28;20433;-64
2023/05/16 16:10:26;;;;;;;1.47;1.47;;;;;;;;;;4970975;28;20507;-67
2023/05/16 16:13:05;;;;;;;2.93;1.27;;;;;;;;;;4972322;28;20441;-68
2023/05/16 16:15:31;;;;;;;1.53;1.43;;;;;;;;;;4971629;28;20430;-68
2023/05/16 16:17:57;;;;;;;3.73;1.60;;;;;;;;;;4970652;28;20559;-67
2023/05/16 16:20:23;;;;;;;1.30;1.13;;;;;;;;;;4971598;28;20944;-68
2023/05/16 16:22:49;;;;;;;3.23;1.50;;;;;;;;;;4972048;28;20485;-67
2023/05/16 16:25:15;;;;;;;5.50;2.20;;;;;;;;;;4970428;28;20429;-68
2023/05/16 16:27:41;;;;;;;4.07;1.07;;;;;;;;;;4971723;28;20906;-69
2023/05/16 16:30:08;;;;;;;4.00;1.10;;;;;;;;;;4971298;28;20433;-69
2023/05/16 16:32:34;;;;;;;1.73;1.20;;;;;;;;;;4970442;28;20501;-68
2023/05/16 16:35:03;;;;;;;1.00;1.00;;;;;;;;;;4968927;28;20430;-68
2023/05/16 16:37:29;;;;;;;2.60;1.00;;;;;;;;;;4971089;28;20438;-67
2023/05/16 16:39:55;;;;;;;1.00;1.00;;;;;;;;;;4970744;28;20457;-68
2023/05/16 16:42:24;;;;;;;3.20;0.93;;;;;;;;;;4969407;28;20492;-67
2023/05/16 16:44:50;;;;;;;2.20;1.43;;;;;;;;;;4971676;28;20489;-68
2023/05/16 16:47:16;;;;;;;8.13;1.10;;;;;;;;;;4970963;28;20426;-68
2023/05/16 16:49:42;;;;;;;2.53;1.10;;;;;;;;;;4971510;28;20438;-67
2023/05/16 16:52:08;;;;;;;3.07;1.20;;;;;;;;;;4970473;28;20513;-67
2023/05/16 16:54:34;;;;;;;6.80;1.80;;;;;;;;;;4964731;28;20516;-67